Time;durP1;ratioP1;P1;durP2;ratioP2;P2;SDS_P1;SDS_P2;PMS_P1;PMS_P2;Temp;Humidity;BMP_temperature;BMP_pressure;BME280_temperature;BME280_humidity;BME280_pressure;Samples;Min_cycle;Max_cycle;Signal;HPM_P1;HPM_P2
2022/09/01 00:00:13;;;;;;;5.20;3.95;;;;;;;19.16;62.14;99728.81;344632;28;1727;-73
2022/09/01 00:00:27;;;;;;;4.32;3.60;;;;;;;19.16;62.21;99723.56;342997;28;1682;-77
2022/09/01 00:00:48;;;;;;;3.65;3.35;;;;;;;19.16;62.50;99720.91;342401;28;1282;-72
2022/09/01 00:01:02;;;;;;;4.07;3.67;;;;;;;19.16;62.17;99723.56;342250;28;1743;-76
2022/09/01 00:01:20;;;;;;;4.53;3.60;;;;;;;19.16;62.16;99723.56;343307;28;1681;-72
2022/09/01 00:01:33;;;;;;;4.45;3.60;;;;;;;19.16;62.12;99717.44;341489;28;1752;-76
2022/09/01 00:01:48;;;;;;;4.22;3.80;;;;;;;19.18;62.17;99725.25;343139;28;1064;-73
2022/09/01 00:02:07;;;;;;;4.40;3.70;;;;;;;19.19;62.14;99722.50;341495;28;1590;-79
2022/09/01 00:02:19;;;;;;;5.15;3.80;;;;;;;19.18;62.28;99727.88;343101;28;1368;-73
2022/09/01 00:02:33;;;;;;;5.28;3.95;;;;;;;19.18;62.13;99725.25;343381;28;1280;-73
2022/09/01 00:02:46;;;;;;;5.03;3.72;;;;;;;19.18;62.17;99726.09;343160;28;1969;-72
2022/09/01 00:02:58;;;;;;;4.25;3.75;;;;;;;19.19;62.14;99721.66;343026;28;1910;-74
2022/09/01 00:03:12;;;;;;;4.30;3.90;;;;;;;19.20;62.22;99726.00;342526;28;1621;-73
2022/09/01 00:03:24;;;;;;;4.20;3.80;;;;;;;19.19;62.45;99726.94;345670;28;1148;-75
2022/09/01 00:03:37;;;;;;;4.03;3.60;;;;;;;19.21;62.02;99732.94;346308;28;1251;-73
2022/09/01 00:03:51;;;;;;;4.00;3.60;;;;;;;19.21;62.19;99725.03;345206;28;1536;-72
2022/09/01 00:04:05;;;;;;;4.15;3.65;;;;;;;19.18;62.24;99720.81;343930;28;1707;-73
2022/09/01 00:04:21;;;;;;;3.90;3.50;;;;;;;19.19;62.13;99727.75;344483;28;1763;-75
2022/09/01 00:04:37;;;;;;;4.00;3.58;;;;;;;19.15;62.40;99721.84;343212;28;1110;-74
2022/09/01 00:04:53;;;;;;;4.22;3.80;;;;;;;19.14;62.22;99725.44;342166;28;1031;-74
2022/09/01 00:05:06;;;;;;;4.10;3.75;;;;;;;19.16;62.19;99726.19;342454;28;1523;-72
2022/09/01 00:05:18;;;;;;;4.13;3.60;;;;;;;19.16;61.83;99726.19;341454;28;1295;-73
2022/09/01 00:05:31;;;;;;;4.20;3.53;;;;;;;19.11;62.57;99725.63;343567;28;1075;-73
2022/09/01 00:05:45;;;;;;;4.18;3.70;;;;;;;19.12;62.44;99722.06;343023;28;1363;-74
2022/09/01 00:05:57;;;;;;;5.22;3.75;;;;;;;19.12;62.57;99727.34;343787;28;1192;-73
2022/09/01 00:06:10;;;;;;;4.88;3.60;;;;;;;19.12;62.17;99727.34;341067;29;1160;-73
2022/09/01 00:06:23;;;;;;;4.18;3.75;;;;;;;19.13;62.27;99729.00;343049;28;1339;-73
2022/09/01 00:06:38;;;;;;;4.35;3.95;;;;;;;19.14;62.25;99725.44;343697;28;1030;-73
2022/09/01 00:06:53;;;;;;;4.45;4.05;;;;;;;19.15;62.46;99729.75;343449;28;1048;-76
2022/09/01 00:07:06;;;;;;;4.15;3.83;;;;;;;19.14;62.14;99730.72;342249;28;1319;-73
2022/09/01 00:07:19;;;;;;;3.95;3.65;;;;;;;19.13;62.01;99723.75;342325;28;1189;-73
2022/09/01 00:07:34;;;;;;;4.32;3.92;;;;;;;19.13;62.19;99723.75;342323;28;1223;-72
2022/09/01 00:07:47;;;;;;;4.53;4.07;;;;;;;19.15;62.43;99721.00;343474;28;1204;-77
2022/09/01 00:07:59;;;;;;;4.75;3.95;;;;;;;19.14;62.54;99730.72;343699;28;1251;-73
2022/09/01 00:08:12;;;;;;;4.80;3.70;;;;;;;19.14;62.49;99725.44;343354;28;1232;-73
2022/09/01 00:08:29;;;;;;;5.32;3.60;;;;;;;19.15;62.49;99721.84;340805;29;1181;-72
2022/09/01 00:08:41;;;;;;;5.63;3.60;;;;;;;19.15;62.48;99727.13;340865;29;1190;-75
2022/09/01 00:08:55;;;;;;;4.95;3.65;;;;;;;19.14;62.29;99720.19;341452;28;1730;-73
2022/09/01 00:09:12;;;;;;;4.55;3.65;;;;;;;19.15;62.26;99721.84;343286;28;1722;-73
2022/09/01 00:09:24;;;;;;;4.05;3.65;;;;;;;19.14;62.60;99721.97;343331;28;1354;-76
2022/09/01 00:09:37;;;;;;;4.10;3.72;;;;;;;19.13;62.61;99726.38;342664;28;1794;-77
2022/09/01 00:09:50;;;;;;;4.38;3.97;;;;;;;19.14;62.66;99722.81;344716;28;1039;-73
2022/09/01 00:10:06;;;;;;;4.47;4.07;;;;;;;19.08;62.90;99720.59;343658;28;1772;-74
2022/09/01 00:10:18;;;;;;;4.50;4.00;;;;;;;19.08;62.75;99720.59;343470;28;1763;-74
2022/09/01 00:10:30;;;;;;;4.20;3.80;;;;;;;19.11;62.69;99720.38;343561;28;1028;-75
2022/09/01 00:10:42;;;;;;;4.00;3.63;;;;;;;19.09;62.45;99722.25;343674;28;1115;-76
2022/09/01 00:10:54;;;;;;;4.03;3.63;;;;;;;19.10;62.49;99726.59;344192;28;1789;-77
2022/09/01 00:11:06;;;;;;;4.43;3.58;;;;;;;19.08;62.40;99725.84;343813;28;2033;-75
2022/09/01 00:11:19;;;;;;;3.95;3.45;;;;;;;19.11;62.36;99720.38;345943;28;1823;-76
2022/09/01 00:11:31;;;;;;;4.07;3.42;;;;;;;19.13;62.19;99729.00;346361;28;1061;-73
2022/09/01 00:11:47;;;;;;;4.25;3.50;;;;;;;19.12;62.41;99721.22;346064;28;1181;-73
2022/09/01 00:12:04;;;;;;;6.57;3.47;;;;;;;19.12;62.33;99722.06;344274;28;1945;-73
2022/09/01 00:12:17;;;;;;;6.80;3.60;;;;;;;19.12;62.36;99727.34;344160;28;1715;-77
2022/09/01 00:12:29;;;;;;;4.25;3.60;;;;;;;19.14;62.27;99725.44;342900;28;2286;-76
2022/09/01 00:12:42;;;;;;;4.60;3.45;;;;;;;19.14;62.20;99720.19;343442;28;1236;-73
2022/09/01 00:12:54;;;;;;;4.68;3.55;;;;;;;19.13;62.10;99729.00;343451;28;1103;-75
2022/09/01 00:13:07;;;;;;;4.95;3.67;;;;;;;19.15;62.23;99726.28;342915;28;1742;-76
2022/09/01 00:13:19;;;;;;;4.32;3.67;;;;;;;19.16;62.11;99723.56;342987;28;1132;-73
2022/09/01 00:13:32;;;;;;;4.05;3.65;;;;;;;19.16;62.23;99722.72;342290;28;1151;-74
2022/09/01 00:13:45;;;;;;;4.60;3.90;;;;;;;19.16;62.04;99725.34;342312;28;1196;-74
2022/09/01 00:14:00;;;;;;;4.90;3.95;;;;;;;19.18;62.23;99725.25;341895;28;1745;-79
2022/09/01 00:14:13;;;;;;;4.85;3.67;;;;;;;19.08;62.72;99720.59;343040;28;1625;-73
2022/09/01 00:14:42;;;;;;;5.30;3.83;;;;;;;19.05;62.51;99720.78;342162;28;1089;-73
2022/09/01 00:14:54;;;;;;;5.72;3.92;;;;;;;19.06;62.72;99719.84;342081;28;1036;-75
2022/09/01 00:15:09;;;;;;;7.00;3.70;;;;;;;19.07;62.71;99718.88;342263;28;1662;-73
2022/09/01 00:15:21;;;;;;;6.45;3.58;;;;;;;19.08;62.64;99719.75;344830;28;1818;-73
2022/09/01 00:15:34;;;;;;;4.55;3.50;;;;;;;19.09;62.45;99724.06;344913;28;1110;-75
2022/09/01 00:15:47;;;;;;;4.82;3.72;;;;;;;19.09;62.69;99718.78;340557;28;5100;-75
2022/09/01 00:16:02;;;;;;;4.40;3.70;;;;;;;19.11;62.62;99720.38;342625;28;2743;-75
2022/09/01 00:16:17;;;;;;;3.80;3.40;;;;;;;19.09;62.30;99722.25;342406;28;1655;-78
2022/09/01 00:16:29;;;;;;;3.80;3.40;;;;;;;19.10;62.72;99721.34;341269;28;2882;-76
2022/09/01 00:16:41;;;;;;;3.97;3.58;;;;;;;19.08;62.71;99725.84;341070;29;1023;-72
2022/09/01 00:16:54;;;;;;;4.10;3.70;;;;;;;19.06;62.76;99726.91;342306;28;1284;-73
2022/09/01 00:17:08;;;;;;;4.25;3.80;;;;;;;19.07;62.71;99724.16;340528;28;2097;-72
2022/09/01 00:17:20;;;;;;;4.85;3.67;;;;;;;19.04;62.81;99724.38;340954;28;1239;-74
2022/09/01 00:17:33;;;;;;;4.43;3.55;;;;;;;19.06;62.67;99719.84;340359;29;1745;-76
2022/09/01 00:17:45;;;;;;;3.92;3.50;;;;;;;19.05;62.78;99726.03;340406;29;2605;-75
2022/09/01 00:17:57;;;;;;;4.60;3.50;;;;;;;19.07;62.76;99718.88;340989;28;1712;-77
2022/09/01 00:18:09;;;;;;;4.95;3.60;;;;;;;19.06;62.98;99722.47;339654;28;1576;-76
2022/09/01 00:18:21;;;;;;;4.70;3.90;;;;;;;19.08;62.61;99725.84;343642;28;1175;-72
2022/09/01 00:18:34;;;;;;;5.10;4.07;;;;;;;19.08;62.98;99725.84;343139;28;1191;-73
2022/09/01 00:18:52;;;;;;;4.97;4.00;;;;;;;19.06;62.88;99719.00;341379;28;1937;-73
2022/09/01 00:19:05;;;;;;;4.13;3.72;;;;;;;19.07;62.72;99718.88;341658;28;1546;-77
2022/09/01 00:19:17;;;;;;;4.20;3.80;;;;;;;19.05;62.55;99726.03;341105;28;1713;-74
2022/09/01 00:19:32;;;;;;;4.18;3.78;;;;;;;19.06;62.64;99714.56;344369;28;1779;-72
2022/09/01 00:19:44;;;;;;;4.22;3.80;;;;;;;19.06;62.87;99725.13;344921;28;1066;-73
2022/09/01 00:19:56;;;;;;;5.65;3.92;;;;;;;19.07;62.97;99724.16;343547;28;1046;-72
2022/09/01 00:20:09;;;;;;;5.43;3.88;;;;;;;19.09;62.86;99718.78;342199;28;1383;-75
2022/09/01 00:20:21;;;;;;;5.68;3.83;;;;;;;19.07;62.81;99726.78;342131;28;1012;-73
2022/09/01 00:20:35;;;;;;;4.82;3.53;;;;;;;19.09;62.73;99716.16;341007;29;1260;-73
2022/09/01 00:20:47;;;;;;;4.50;3.60;;;;;;;19.09;62.64;99717.00;340744;28;1724;-73
2022/09/01 00:20:59;;;;;;;4.13;3.47;;;;;;;19.08;62.87;99720.59;341504;28;1648;-73
2022/09/01 00:21:12;;;;;;;3.80;3.50;;;;;;;19.08;62.56;99719.75;342176;28;1014;-74
2022/09/01 00:21:30;;;;;;;3.90;3.60;;;;;;;19.07;62.77;99718.88;339832;29;1207;-74
2022/09/01 00:21:43;;;;;;;4.30;3.60;;;;;;;19.09;62.60;99724.91;339833;28;1778;-75
2022/09/01 00:21:56;;;;;;;4.72;3.70;;;;;;;19.09;62.58;99726.69;342761;28;1587;-74
2022/09/01 00:22:08;;;;;;;5.05;3.67;;;;;;;19.11;62.42;99720.38;344809;28;1176;-73
2022/09/01 00:22:20;;;;;;;4.05;3.50;;;;;;;19.11;62.39;99725.63;342562;28;1428;-75
2022/09/01 00:22:32;;;;;;;4.35;3.50;;;;;;;19.11;62.38;99719.53;343097;28;1462;-78
2022/09/01 00:22:44;;;;;;;3.90;3.42;;;;;;;19.10;62.43;99723.97;344062;28;888;-74
2022/09/01 00:22:56;;;;;;;3.88;3.53;;;;;;;19.12;62.52;99724.69;342605;28;1744;-73
2022/09/01 00:23:09;;;;;;;3.90;3.50;;;;;;;19.11;62.41;99720.38;342727;28;1498;-72
2022/09/01 00:23:21;;;;;;;4.38;3.72;;;;;;;19.12;62.50;99724.69;343084;28;1056;-73
2022/09/01 00:23:33;;;;;;;5.05;3.90;;;;;;;19.11;62.45;99717.72;343676;28;1076;-72
2022/09/01 00:23:45;;;;;;;6.15;3.97;;;;;;;19.12;62.66;99718.59;342165;28;1043;-73
2022/09/01 00:23:59;;;;;;;5.72;3.80;;;;;;;19.11;62.90;99723.00;341917;28;1703;-77
2022/09/01 00:24:15;;;;;;;4.53;3.60;;;;;;;19.12;62.45;99726.50;343291;28;1750;-73
2022/09/01 00:24:27;;;;;;;5.38;3.80;;;;;;;19.12;62.46;99727.34;340113;29;1564;-72
2022/09/01 00:24:39;;;;;;;6.22;4.07;;;;;;;19.10;62.60;99723.97;341548;28;2004;-76
2022/09/01 00:24:51;;;;;;;6.38;3.90;;;;;;;19.08;62.57;99719.75;342231;28;1253;-73
2022/09/01 00:25:05;;;;;;;5.78;3.83;;;;;;;19.08;62.66;99725.84;340667;28;1970;-77
2022/09/01 00:25:18;;;;;;;4.45;3.58;;;;;;;19.09;62.58;99727.53;340836;28;1745;-77
2022/09/01 00:25:31;;;;;;;3.90;3.60;;;;;;;19.09;62.61;99726.69;340971;29;1192;-73
2022/09/01 00:25:43;;;;;;;4.00;3.70;;;;;;;19.10;62.73;99723.13;341334;28;1074;-72
2022/09/01 00:25:55;;;;;;;4.22;3.83;;;;;;;19.10;62.44;99726.59;341591;28;1667;-72
2022/09/01 00:26:07;;;;;;;4.20;3.80;;;;;;;19.11;62.57;99725.63;342976;28;1932;-76
2022/09/01 00:26:20;;;;;;;4.20;3.80;;;;;;;19.12;62.59;99732.59;341680;28;1645;-73
2022/09/01 00:26:32;;;;;;;6.50;3.72;;;;;;;19.13;62.49;99728.19;344438;28;1176;-72
2022/09/01 00:26:45;;;;;;;7.03;3.88;;;;;;;19.12;62.57;99722.06;343839;28;1346;-73
2022/09/01 00:26:57;;;;;;;6.05;3.85;;;;;;;19.12;62.34;99722.06;343899;28;1249;-73
2022/09/01 00:27:09;;;;;;;4.55;3.78;;;;;;;19.11;62.39;99730.06;343680;28;1560;-72
2022/09/01 00:27:21;;;;;;;4.40;3.75;;;;;;;19.11;62.47;99725.63;344283;28;1182;-74
2022/09/01 00:27:42;;;;;;;5.10;3.95;;;;;;;19.10;62.41;99723.97;343700;28;1767;-76
2022/09/01 00:27:58;;;;;;;4.72;3.88;;;;;;;19.09;62.60;99722.25;342937;28;1778;-73
2022/09/01 00:28:10;;;;;;;4.28;3.80;;;;;;;19.09;62.79;99732.81;344816;28;1075;-72
2022/09/01 00:28:22;;;;;;;4.95;3.85;;;;;;;19.08;62.78;99725.84;342878;28;1193;-72
2022/09/01 00:28:41;;;;;;;4.82;3.70;;;;;;;19.09;62.57;99727.53;343548;28;1265;-72
2022/09/01 00:28:53;;;;;;;4.38;3.80;;;;;;;19.10;62.49;99728.41;343534;28;1092;-74
2022/09/01 00:29:06;;;;;;;4.55;4.00;;;;;;;19.10;62.39;99729.22;341307;28;1749;-73
2022/09/01 00:29:18;;;;;;;6.00;3.83;;;;;;;19.10;62.48;99734.50;342190;28;1991;-76
2022/09/01 00:29:30;;;;;;;5.35;3.80;;;;;;;19.09;62.31;99727.53;343468;28;1303;-77
2022/09/01 00:29:42;;;;;;;4.28;3.70;;;;;;;19.09;62.31;99730.16;343173;28;1248;-72
2022/09/01 00:29:55;;;;;;;5.05;3.80;;;;;;;19.11;62.37;99730.91;342538;28;1475;-77
2022/09/01 00:30:08;;;;;;;5.25;3.72;;;;;;;19.12;62.44;99726.50;339952;29;1685;-73
2022/09/01 00:30:21;;;;;;;4.07;3.60;;;;;;;19.09;62.47;99730.16;341650;28;1227;-75
2022/09/01 00:30:33;;;;;;;5.63;3.60;;;;;;;19.09;62.71;99724.91;341064;29;1040;-73
2022/09/01 00:30:45;;;;;;;5.35;3.63;;;;;;;19.10;62.56;99718.69;341617;28;1760;-72
2022/09/01 00:30:57;;;;;;;5.25;3.75;;;;;;;19.11;62.53;99725.63;339667;28;2000;-74
2022/09/01 00:31:10;;;;;;;4.32;3.90;;;;;;;19.11;62.47;99730.06;341176;28;1727;-72
2022/09/01 00:31:22;;;;;;;4.65;3.95;;;;;;;19.11;62.62;99730.91;341290;28;1077;-72
2022/09/01 00:31:35;;;;;;;4.90;3.72;;;;;;;19.12;62.70;99722.06;341336;28;1457;-74
2022/09/01 00:31:48;;;;;;;3.97;3.55;;;;;;;19.12;62.46;99719.44;342294;28;890;-73
2022/09/01 00:32:00;;;;;;;4.57;3.67;;;;;;;19.11;62.51;99724.81;341190;28;1780;-75
2022/09/01 00:32:12;;;;;;;4.72;3.90;;;;;;;19.10;62.47;99721.34;341684;28;1700;-75
2022/09/01 00:32:25;;;;;;;4.40;4.00;;;;;;;19.12;62.58;99722.06;342180;28;1243;-75
2022/09/01 00:32:37;;;;;;;4.38;3.97;;;;;;;19.10;62.23;99718.69;342130;28;1165;-72
2022/09/01 00:32:49;;;;;;;5.07;3.90;;;;;;;19.09;62.70;99722.25;341941;28;1707;-73
2022/09/01 00:33:01;;;;;;;5.57;4.10;;;;;;;19.10;62.81;99723.97;341971;28;1650;-72
2022/09/01 00:33:13;;;;;;;4.82;4.07;;;;;;;19.11;62.57;99725.63;341890;28;1798;-72
2022/09/01 00:33:26;;;;;;;4.90;4.20;;;;;;;19.10;62.53;99718.69;342286;28;1554;-73
2022/09/01 00:33:38;;;;;;;5.57;4.10;;;;;;;19.10;62.40;99723.97;342439;28;1604;-76
2022/09/01 00:33:50;;;;;;;5.50;4.22;;;;;;;19.11;62.74;99723.00;342379;28;1484;-73
2022/09/01 00:34:03;;;;;;;4.40;3.97;;;;;;;19.11;62.87;99720.38;340163;28;2674;-74
2022/09/01 00:34:16;;;;;;;4.40;4.00;;;;;;;19.08;62.67;99725.84;340229;28;1115;-72
2022/09/01 00:34:28;;;;;;;4.53;4.10;;;;;;;19.11;62.59;99719.53;339995;28;1091;-73
2022/09/01 00:34:40;;;;;;;4.45;4.05;;;;;;;19.13;62.79;99722.91;340803;28;1653;-76
2022/09/01 00:34:52;;;;;;;4.15;3.75;;;;;;;19.12;62.73;99726.50;341881;28;1574;-73
2022/09/01 00:35:04;;;;;;;4.15;3.80;;;;;;;19.09;62.48;99717.00;342337;28;1733;-75
2022/09/01 00:35:19;;;;;;;4.28;3.88;;;;;;;19.10;62.78;99717.84;343365;28;1355;-74
2022/09/01 00:35:30;;;;;;;4.30;3.90;;;;;;;19.11;62.50;99725.63;344911;28;1102;-73
2022/09/01 00:35:48;;;;;;;4.35;3.95;;;;;;;19.11;62.42;99720.38;343462;28;1026;-73
2022/09/01 00:36:01;;;;;;;4.55;4.10;;;;;;;19.10;62.75;99718.69;343926;28;1726;-72
2022/09/01 00:36:14;;;;;;;4.70;4.10;;;;;;;19.10;62.61;99718.69;342384;28;1716;-73
2022/09/01 00:36:26;;;;;;;4.72;4.05;;;;;;;19.08;62.64;99725.84;339988;29;1748;-74
2022/09/01 00:36:38;;;;;;;4.35;3.95;;;;;;;19.10;62.66;99715.22;340938;29;1816;-78
2022/09/01 00:36:50;;;;;;;4.18;3.85;;;;;;;19.08;62.74;99719.75;339633;29;1538;-74
2022/09/01 00:37:03;;;;;;;4.10;3.80;;;;;;;19.09;62.70;99724.91;338542;29;1115;-74
2022/09/01 00:37:15;;;;;;;4.10;3.80;;;;;;;19.08;62.57;99723.22;338817;29;1266;-72
2022/09/01 00:37:28;;;;;;;4.20;3.80;;;;;;;19.08;62.57;99723.22;338922;29;1485;-73
2022/09/01 00:37:40;;;;;;;5.53;4.05;;;;;;;19.08;62.71;99731.13;339618;29;1600;-73
2022/09/01 00:37:52;;;;;;;5.45;4.20;;;;;;;19.09;62.68;99719.63;341043;29;1135;-75
2022/09/01 00:38:04;;;;;;;5.00;4.25;;;;;;;19.08;63.03;99725.03;340612;28;1628;-73
2022/09/01 00:38:16;;;;;;;4.45;4.05;;;;;;;19.08;62.74;99717.13;340610;28;1752;-76
2022/09/01 00:38:29;;;;;;;4.25;3.85;;;;;;;19.07;62.84;99724.16;341172;29;1496;-73
2022/09/01 00:38:41;;;;;;;4.30;3.90;;;;;;;19.08;62.70;99725.84;341447;28;1060;-72
2022/09/01 00:38:53;;;;;;;4.32;3.90;;;;;;;19.07;62.58;99726.78;343958;28;763;-72
2022/09/01 00:39:06;;;;;;;4.47;4.00;;;;;;;19.06;62.79;99732.19;342716;28;1939;-72
2022/09/01 00:39:18;;;;;;;4.57;4.13;;;;;;;19.03;62.66;99727.94;342084;28;1865;-75
2022/09/01 00:39:30;;;;;;;4.50;4.10;;;;;;;19.04;62.91;99726.16;342647;28;2317;-73
2022/09/01 00:39:42;;;;;;;4.50;4.10;;;;;;;19.01;63.05;99716.66;342649;28;1714;-73
2022/09/01 00:39:54;;;;;;;4.40;4.00;;;;;;;19.01;63.01;99721.94;342318;28;1771;-73
2022/09/01 00:40:09;;;;;;;4.38;3.97;;;;;;;19.01;62.85;99719.28;342741;28;1080;-73
2022/09/01 00:40:21;;;;;;;4.28;3.70;;;;;;;19.01;63.14;99724.56;344419;28;1683;-73
2022/09/01 00:40:34;;;;;;;4.60;3.95;;;;;;;19.03;62.95;99727.09;345121;28;1193;-75
2022/09/01 00:40:46;;;;;;;4.90;4.10;;;;;;;19.02;62.95;99721.00;344709;28;1337;-73
2022/09/01 00:40:59;;;;;;;5.22;4.30;;;;;;;19.03;63.12;99727.94;343380;28;1654;-76
2022/09/01 00:41:12;;;;;;;5.00;4.20;;;;;;;19.01;62.94;99721.94;343677;28;1567;-73
2022/09/01 00:41:27;;;;;;;4.78;4.25;;;;;;;19.02;63.01;99718.38;344746;28;1120;-73
2022/09/01 00:41:41;;;;;;;4.78;4.28;;;;;;;19.01;62.85;99721.94;343551;28;1108;-73
2022/09/01 00:41:53;;;;;;;6.25;4.35;;;;;;;19.00;62.89;99722.88;343496;28;1200;-72
2022/09/01 00:42:05;;;;;;;7.25;4.50;;;;;;;18.99;62.83;99721.19;340773;28;1815;-73
2022/09/01 00:42:18;;;;;;;6.32;4.43;;;;;;;18.99;62.75;99726.47;342819;28;1740;-73
2022/09/01 00:42:30;;;;;;;5.30;4.50;;;;;;;19.01;62.84;99727.19;343574;28;1206;-75
2022/09/01 00:42:43;;;;;;;4.97;4.47;;;;;;;18.98;62.91;99722.16;342607;28;1786;-76
2022/09/01 00:42:55;;;;;;;8.57;4.43;;;;;;;18.99;63.11;99726.47;342322;28;1636;-73
2022/09/01 00:43:15;;;;;;;7.85;4.13;;;;;;;19.00;62.89;99725.53;340680;28;1725;-78
2022/09/01 00:43:50;;;;;;;4.68;4.18;;;;;;;19.02;62.82;99728.06;340852;29;964;-73
2022/09/01 00:44:07;;;;;;;5.13;4.53;;;;;;;19.03;63.11;99727.09;343364;28;1775;-73
2022/09/01 00:44:26;;;;;;;4.60;4.20;;;;;;;19.00;62.80;99727.31;343275;28;1204;-73
2022/09/01 00:44:40;;;;;;;4.90;4.13;;;;;;;18.96;62.91;99722.25;342022;28;1107;-77
2022/09/01 00:44:52;;;;;;;5.28;4.20;;;;;;;18.97;63.04;99717.81;342253;28;1067;-75
2022/09/01 00:45:07;;;;;;;4.93;4.10;;;;;;;18.99;62.87;99726.47;343028;28;1826;-74
2022/09/01 00:45:21;;;;;;;5.10;4.30;;;;;;;19.00;62.97;99724.69;343222;28;1775;-73
2022/09/01 00:45:34;;;;;;;5.18;4.55;;;;;;;19.00;63.03;99722.88;344740;28;1035;-72
2022/09/01 00:45:46;;;;;;;4.90;4.40;;;;;;;19.00;63.22;99717.63;342802;28;1722;-75
2022/09/01 00:45:59;;;;;;;4.95;4.30;;;;;;;18.99;63.12;99721.19;344063;28;2029;-75
2022/09/01 00:46:18;;;;;;;5.13;4.20;;;;;;;19.02;62.84;99730.69;343039;28;1864;-73
2022/09/01 00:46:37;;;;;;;5.03;4.03;;;;;;;19.02;63.04;99726.28;343503;28;1907;-76
2022/09/01 00:47:01;;;;;;;4.38;3.97;;;;;;;19.01;63.16;99721.94;342880;28;1639;-76
2022/09/01 00:47:13;;;;;;;4.35;3.95;;;;;;;19.02;62.87;99726.28;343626;28;1576;-73
2022/09/01 00:47:25;;;;;;;4.50;4.10;;;;;;;19.01;62.85;99724.56;343349;28;1474;-73
2022/09/01 00:47:38;;;;;;;4.80;4.25;;;;;;;18.98;63.02;99723.94;344928;28;1055;-73
2022/09/01 00:47:50;;;;;;;5.07;4.28;;;;;;;19.00;63.04;99725.53;344768;28;1226;-75
2022/09/01 00:48:04;;;;;;;6.20;4.20;;;;;;;19.01;63.13;99724.56;344072;28;1708;-76
2022/09/01 00:48:19;;;;;;;6.35;4.50;;;;;;;18.99;63.04;99718.56;344377;28;1958;-73
2022/09/01 00:48:32;;;;;;;5.00;4.38;;;;;;;19.01;63.10;99723.72;344963;28;1115;-73
2022/09/01 00:48:45;;;;;;;5.22;4.45;;;;;;;19.02;62.88;99723.63;345029;28;1082;-76
2022/09/01 00:49:03;;;;;;;4.93;4.40;;;;;;;18.98;63.09;99718.69;344515;28;1566;-78
2022/09/01 00:49:25;;;;;;;4.70;4.15;;;;;;;18.97;63.05;99725.72;344043;28;1487;-77
2022/09/01 00:49:41;;;;;;;4.88;4.35;;;;;;;18.95;63.11;99720.56;344905;28;1081;-74
2022/09/01 00:49:54;;;;;;;4.93;4.40;;;;;;;18.95;63.47;99723.19;344966;28;1052;-73
2022/09/01 00:50:07;;;;;;;5.10;4.35;;;;;;;18.95;63.18;99719.72;343809;28;1666;-73
2022/09/01 00:50:20;;;;;;;4.88;4.20;;;;;;;18.96;62.98;99718.78;344643;28;1592;-73
2022/09/01 00:50:32;;;;;;;4.82;4.32;;;;;;;18.95;63.00;99724.97;344643;28;1356;-73
2022/09/01 00:50:45;;;;;;;5.05;4.50;;;;;;;18.95;63.01;99719.72;343590;28;1020;-73
2022/09/01 00:51:03;;;;;;;6.45;4.50;;;;;;;18.96;63.02;99721.41;342395;28;1402;-72
2022/09/01 00:51:16;;;;;;;6.40;4.45;;;;;;;18.95;63.03;99717.94;343627;28;1172;-73
2022/09/01 00:51:29;;;;;;;5.30;4.43;;;;;;;18.94;63.17;99720.66;343602;28;1149;-73
2022/09/01 00:51:46;;;;;;;5.18;4.32;;;;;;;18.92;63.34;99720.75;343447;28;1341;-73
2022/09/01 00:52:04;;;;;;;6.22;4.32;;;;;;;18.93;63.24;99727.72;342081;28;1684;-79
2022/09/01 00:52:39;;;;;;;6.00;4.43;;;;;;;18.92;63.22;99719.91;341985;28;1771;-79
2022/09/01 00:52:54;;;;;;;4.97;4.32;;;;;;;18.92;63.18;99725.19;341863;28;1937;-73
2022/09/01 00:53:07;;;;;;;5.00;4.18;;;;;;;18.92;63.26;99720.75;343121;28;1795;-72
2022/09/01 00:53:19;;;;;;;4.82;4.28;;;;;;;18.91;63.23;99723.50;342953;28;1092;-73
2022/09/01 00:53:32;;;;;;;4.88;4.22;;;;;;;18.91;63.32;99719.09;342371;28;1211;-73
2022/09/01 00:53:45;;;;;;;4.93;4.28;;;;;;;18.91;63.35;99724.34;342223;28;1044;-76
2022/09/01 00:53:59;;;;;;;4.97;4.47;;;;;;;18.92;63.20;99725.19;341965;28;1041;-74
2022/09/01 00:54:17;;;;;;;5.20;4.70;;;;;;;18.91;63.32;99723.50;342047;28;2092;-73
2022/09/01 00:54:34;;;;;;;4.93;4.50;;;;;;;18.91;63.50;99723.50;340568;28;1903;-75
2022/09/01 00:54:50;;;;;;;4.72;4.32;;;;;;;18.91;63.44;99726.13;341865;28;1797;-76
2022/09/01 00:55:09;;;;;;;4.80;4.40;;;;;;;18.88;63.23;99719.28;342663;28;1728;-74
2022/09/01 00:55:26;;;;;;;5.47;4.13;;;;;;;18.88;63.43;99718.44;342601;28;1795;-73
2022/09/01 00:55:38;;;;;;;8.40;4.30;;;;;;;18.91;63.32;99723.50;344095;28;1030;-72
2022/09/01 00:55:50;;;;;;;6.90;4.47;;;;;;;18.89;63.12;99730.66;344821;28;1023;-73
2022/09/01 00:56:04;;;;;;;6.72;4.40;;;;;;;18.89;63.29;99720.13;343840;28;1825;-74
2022/09/01 00:56:16;;;;;;;5.82;4.45;;;;;;;18.88;63.27;99718.44;344726;28;1710;-76
2022/09/01 00:56:32;;;;;;;6.40;4.50;;;;;;;18.84;63.62;99724.84;344830;28;1010;-74
2022/09/01 00:56:45;;;;;;;5.50;4.55;;;;;;;18.86;63.32;99725.59;344666;28;1023;-72
2022/09/01 00:57:05;;;;;;;5.57;4.53;;;;;;;18.86;63.38;99725.59;343699;28;1791;-75
2022/09/01 00:57:17;;;;;;;5.30;4.70;;;;;;;18.85;63.40;99713.34;343277;28;1739;-74
2022/09/01 00:57:29;;;;;;;5.05;4.55;;;;;;;18.93;63.30;99721.59;343657;28;1059;-72
2022/09/01 00:57:41;;;;;;;5.03;4.53;;;;;;;18.90;63.45;99721.81;343611;28;1091;-73
2022/09/01 00:57:55;;;;;;;5.15;4.53;;;;;;;18.89;63.25;99715.69;343713;28;1680;-73
2022/09/01 00:58:07;;;;;;;5.65;4.60;;;;;;;18.90;63.18;99719.19;344060;28;1722;-74
2022/09/01 00:58:31;;;;;;;5.28;4.57;;;;;;;18.87;63.55;99717.56;344814;28;1171;-76
2022/09/01 00:58:43;;;;;;;5.10;4.60;;;;;;;18.88;63.56;99718.44;343500;28;1868;-74
2022/09/01 00:58:56;;;;;;;4.95;4.30;;;;;;;18.88;63.48;99715.81;344579;28;1770;-72
2022/09/01 00:59:10;;;;;;;5.35;4.40;;;;;;;18.87;63.43;99719.38;344078;28;1645;-77
2022/09/01 00:59:23;;;;;;;5.00;4.50;;;;;;;18.87;63.58;99724.63;344057;28;1243;-72
2022/09/01 00:59:41;;;;;;;5.07;4.57;;;;;;;18.86;63.65;99715.06;344952;28;1244;-72
2022/09/01 01:00:27;;;;;;;5.07;4.53;;;;;;;18.86;63.37;99725.59;343044;28;2125;-75
2022/09/01 01:00:39;;;;;;;4.80;4.40;;;;;;;18.84;63.41;99719.59;343298;28;1048;-73
2022/09/01 01:00:52;;;;;;;4.90;4.40;;;;;;;18.82;63.53;99719.69;340540;28;1346;-75
2022/09/01 01:01:08;;;;;;;5.45;4.40;;;;;;;18.80;63.84;99720.75;340235;29;1919;-75
2022/09/01 01:01:22;;;;;;;5.78;4.40;;;;;;;18.80;63.58;99721.56;339890;28;1793;-73
2022/09/01 01:01:35;;;;;;;5.22;4.38;;;;;;;18.82;63.61;99724.13;340112;29;1683;-72
2022/09/01 01:01:48;;;;;;;5.18;4.43;;;;;;;18.82;63.78;99726.75;340200;29;1696;-75
2022/09/01 01:02:02;;;;;;;5.28;4.47;;;;;;;18.83;63.56;99720.50;343452;28;1807;-72
2022/09/01 01:02:14;;;;;;;4.80;4.30;;;;;;;18.82;63.87;99726.75;343166;28;1191;-72
2022/09/01 01:02:26;;;;;;;4.72;4.30;;;;;;;18.82;64.13;99726.75;342143;28;1168;-72
2022/09/01 01:02:40;;;;;;;4.95;4.50;;;;;;;18.82;63.94;99724.13;340771;29;1020;-76
2022/09/01 01:02:54;;;;;;;4.85;4.45;;;;;;;18.82;63.93;99721.47;341153;28;1499;-76
2022/09/01 01:03:12;;;;;;;4.82;4.32;;;;;;;18.83;63.99;99721.34;341793;28;1664;-76
2022/09/01 01:03:24;;;;;;;4.57;4.18;;;;;;;18.84;63.79;99727.50;342180;28;1522;-74
2022/09/01 01:03:38;;;;;;;4.63;4.23;;;;;;;18.84;63.70;99722.22;341375;28;1165;-72
2022/09/01 01:03:51;;;;;;;5.00;4.55;;;;;;;18.82;64.07;99722.31;342553;28;1798;-73
2022/09/01 01:04:05;;;;;;;5.80;4.60;;;;;;;18.80;63.82;99721.56;343139;28;1015;-77
2022/09/01 01:04:18;;;;;;;5.78;4.60;;;;;;;18.79;63.66;99724.25;342311;28;2372;-73
2022/09/01 01:04:30;;;;;;;5.00;4.50;;;;;;;18.75;63.99;99724.47;344582;28;1295;-72
2022/09/01 01:04:43;;;;;;;4.88;4.38;;;;;;;18.73;63.93;99714.97;343478;28;1077;-75
2022/09/01 01:04:59;;;;;;;4.80;4.38;;;;;;;18.73;63.88;99721.09;343116;28;2098;-79
2022/09/01 01:05:12;;;;;;;4.72;4.30;;;;;;;18.70;64.28;99721.28;342441;28;1511;-75
2022/09/01 01:05:31;;;;;;;5.00;4.35;;;;;;;18.71;64.23;99723.00;340997;29;952;-72
2022/09/01 01:05:53;;;;;;;5.68;4.38;;;;;;;18.69;63.77;99724.88;341447;28;1767;-75
2022/09/01 01:06:07;;;;;;;5.80;4.55;;;;;;;18.71;64.03;99722.13;341630;28;1508;-77
2022/09/01 01:06:26;;;;;;;5.30;4.60;;;;;;;18.71;64.21;99720.38;342320;28;1090;-73
2022/09/01 01:06:48;;;;;;;4.93;4.50;;;;;;;18.71;64.05;99723.00;342820;28;1158;-78
2022/09/01 01:07:01;;;;;;;5.03;4.53;;;;;;;18.72;64.15;99719.41;343053;28;1572;-74
2022/09/01 01:07:15;;;;;;;5.00;4.50;;;;;;;18.73;64.11;99723.75;342672;28;1573;-77
2022/09/01 01:07:27;;;;;;;4.97;4.47;;;;;;;18.73;64.20;99721.09;343810;28;1099;-75